createdAt,value
2023-01-10T00:04:38.239Z,7.76
2023-01-10T00:09:40.613Z,7.85
2023-01-10T00:14:42.801Z,8.02
2023-01-10T00:19:45.142Z,7.95
2023-01-10T00:24:47.447Z,8.20
2023-01-10T00:29:54.115Z,8.24
2023-01-10T00:34:56.422Z,8.14
2023-01-10T00:39:59.044Z,7.61
2023-01-10T00:45:01.427Z,7.88
2023-01-10T00:50:08.826Z,7.69
2023-01-10T00:55:11.226Z,7.96
2023-01-10T01:00:14.081Z,7.23
2023-01-10T01:05:16.569Z,7.06
2023-01-10T01:10:29.039Z,6.77
2023-01-10T01:15:31.439Z,6.94
2023-01-10T01:20:34.149Z,7.18
2023-01-10T01:25:36.500Z,6.65
2023-01-10T01:30:39.057Z,6.70
2023-01-10T01:35:46.450Z,6.53
2023-01-10T01:40:48.735Z,6.68
2023-01-10T01:45:51.628Z,6.79
2023-01-10T01:51:29.573Z,6.77
2023-01-10T01:56:45.330Z,6.94
2023-01-10T02:01:52.661Z,6.74
2023-01-10T02:06:57.579Z,6.78
2023-01-10T02:12:00.146Z,6.51
2023-01-10T02:17:02.526Z,6.32
2023-01-10T02:22:30.963Z,6.66
2023-01-10T02:28:28.310Z,6.22
2023-01-10T02:33:40.957Z,6.79
2023-01-10T02:39:05.307Z,6.56
2023-01-10T02:44:34.506Z,6.73
2023-01-10T02:49:49.105Z,6.60
2023-01-10T02:54:59.044Z,6.32
2023-01-10T03:00:09.125Z,6.20
2023-01-10T03:05:49.369Z,6.47
2023-01-10T03:11:02.933Z,6.90
2023-01-10T03:16:09.794Z,6.84
2023-01-10T03:21:13.549Z,6.41
2023-01-10T03:26:22.948Z,6.51
2023-01-10T03:31:36.203Z,6.05
2023-01-10T03:37:03.384Z,5.96
2023-01-10T03:42:24.989Z,6.07
2023-01-10T03:47:45.637Z,5.90
2023-01-10T03:52:49.063Z,6.05
2023-01-10T03:57:51.427Z,5.85
2023-01-10T04:02:53.731Z,5.81
2023-01-10T04:07:56.088Z,6.17
2023-01-10T04:13:02.664Z,6.39
2023-01-10T04:18:05.046Z,6.04
2023-01-10T04:23:07.321Z,6.51
2023-01-10T04:28:09.587Z,6.21
2023-01-10T04:33:12.708Z,6.33
2023-01-10T04:38:15.910Z,6.45
2023-01-10T04:43:18.138Z,6.02
2023-01-10T04:48:20.851Z,5.96
2023-01-10T04:53:23.471Z,5.89
2023-01-10T04:58:26.007Z,5.85
2023-01-10T05:03:28.254Z,5.92
2023-01-10T05:08:30.687Z,5.90
2023-01-10T05:13:32.947Z,5.77
2023-01-10T05:18:35.433Z,5.98
2023-01-10T05:23:38.722Z,6.20
2023-01-10T05:34:01.977Z,5.79
2023-01-10T05:39:04.494Z,6.07
2023-01-10T05:44:08.070Z,6.12
2023-01-10T05:49:10.412Z,6.03
2023-01-10T05:54:12.765Z,5.66
2023-01-10T05:59:27.585Z,5.95
2023-01-10T06:04:30.328Z,5.93
2023-01-10T06:09:32.781Z,5.82
2023-01-10T06:14:35.060Z,5.71
2023-01-10T06:19:37.722Z,5.74
2023-01-10T06:24:39.949Z,5.87
2023-01-10T06:29:42.423Z,5.81
2023-01-10T06:34:44.805Z,5.77
2023-01-10T06:39:47.300Z,5.48
2023-01-10T06:44:49.684Z,5.71
2023-01-10T06:49:52.064Z,5.78
2023-01-10T06:54:54.609Z,5.82
2023-01-10T06:59:56.933Z,5.58
2023-01-10T07:04:59.290Z,5.63
2023-01-10T07:10:01.732Z,5.69
2023-01-10T07:15:05.292Z,5.75
2023-01-10T07:20:08.777Z,5.64
2023-01-10T07:25:11.507Z,5.81
2023-01-10T07:30:14.089Z,5.82
2023-01-10T07:35:16.464Z,5.66
2023-01-10T07:40:19.342Z,5.52
2023-01-10T07:45:21.838Z,5.49
2023-01-10T07:50:24.182Z,5.57
2023-01-10T07:55:27.590Z,5.65
2023-01-10T08:00:29.864Z,5.60
2023-01-10T08:05:32.511Z,5.67
2023-01-10T08:10:36.099Z,5.75
2023-01-10T08:15:38.510Z,5.79
2023-01-10T08:20:41.735Z,5.91
2023-01-10T08:25:44.372Z,6.21
2023-01-10T08:30:49.015Z,6.13
2023-01-10T08:35:53.001Z,6.21
2023-01-10T08:41:00.940Z,6.13
2023-01-10T08:46:03.449Z,6.61
2023-01-10T08:51:10.549Z,6.52
2023-01-10T08:56:12.948Z,6.78
2023-01-10T09:01:15.520Z,6.96
2023-01-10T09:06:17.904Z,6.72
2023-01-10T09:11:20.270Z,6.71
2023-01-10T09:16:24.157Z,6.96
2023-01-10T09:21:29.211Z,6.90
2023-01-10T09:26:31.508Z,7.06
2023-01-10T09:31:33.877Z,7.41
2023-01-10T09:36:37.334Z,7.13
2023-01-10T09:41:57.753Z,7.55
2023-01-10T09:47:43.619Z,7.53
2023-01-10T09:52:52.936Z,7.83
2023-01-10T09:57:59.505Z,7.98
2023-01-10T10:03:10.727Z,8.21
2023-01-10T10:08:18.369Z,8.22
2023-01-10T10:13:54.647Z,8.60
2023-01-10T10:19:46.278Z,8.62
2023-01-10T10:25:19.788Z,8.29
2023-01-10T10:30:35.524Z,8.58
2023-01-10T10:35:47.787Z,8.61
2023-01-10T10:40:53.011Z,8.81
2023-01-10T10:46:02.445Z,8.65
2023-01-10T10:51:42.825Z,8.98
2023-01-10T10:56:45.854Z,8.83
2023-01-10T11:01:51.046Z,8.88
2023-01-10T11:06:53.784Z,8.96
2023-01-10T11:11:57.053Z,8.81
2023-01-10T11:17:27.589Z,8.80
2023-01-10T11:22:40.138Z,9.02
2023-01-10T11:27:53.711Z,8.79
2023-01-10T11:33:03.549Z,8.70
2023-01-10T11:38:22.235Z,9.27
2023-01-10T11:43:36.463Z,9.62
2023-01-10T11:49:05.613Z,9.97
2023-01-10T11:54:20.467Z,9.73
2023-01-10T11:59:24.543Z,9.22
2023-01-10T12:04:34.034Z,9.43
2023-01-10T12:09:48.010Z,9.09
2023-01-10T12:14:51.769Z,9.67
2023-01-10T12:19:58.809Z,9.19
2023-01-10T12:25:06.437Z,9.62
2023-01-10T12:30:33.978Z,9.87
2023-01-10T12:35:45.791Z,10.24
2023-01-10T16:56:04.929Z,8.06
2023-01-10T17:01:09.243Z,8.22
2023-01-10T17:06:13.698Z,7.99
2023-01-10T17:11:21.905Z,8.10
2023-01-10T17:16:24.227Z,8.21
2023-01-10T17:21:27.119Z,8.53
2023-01-10T17:26:29.211Z,8.20
2023-01-10T17:31:31.359Z,8.22
2023-01-10T17:36:38.555Z,7.84
2023-01-10T17:41:40.708Z,8.13
2023-01-10T17:46:43.016Z,8.05
2023-01-10T17:51:45.337Z,8.45
2023-01-10T17:56:48.019Z,8.10
2023-01-10T18:01:50.288Z,8.44
2023-01-10T18:06:52.514Z,8.21
2023-01-10T18:11:54.628Z,8.38
2023-01-10T18:16:56.843Z,8.28
2023-01-10T18:21:59.027Z,8.31
2023-01-10T18:27:01.157Z,8.47
2023-01-10T18:32:03.471Z,8.43
2023-01-10T18:37:05.743Z,8.47
2023-01-10T18:42:07.929Z,8.33
2023-01-10T18:47:10.239Z,8.65
2023-01-10T18:52:12.364Z,8.61
2023-01-10T18:57:15.246Z,8.53
2023-01-10T19:02:17.616Z,8.49
2023-01-10T19:07:19.779Z,8.79
2023-01-10T19:12:22.125Z,8.62
2023-01-10T19:17:25.235Z,8.66
2023-01-10T19:22:27.563Z,8.70
2023-01-10T19:27:29.747Z,8.80
2023-01-10T19:32:35.084Z,8.68
2023-01-10T19:37:37.212Z,8.42
2023-01-10T19:42:39.494Z,8.53
2023-01-10T19:47:41.631Z,8.63
2023-01-10T19:52:43.875Z,8.57
2023-01-10T19:57:46.014Z,8.54
2023-01-10T20:02:48.388Z,8.62
2023-01-10T20:07:52.176Z,8.48
2023-01-10T20:12:54.304Z,8.24
2023-01-10T20:17:56.429Z,8.34
2023-01-10T20:22:58.625Z,8.29
2023-01-10T20:28:00.888Z,8.18
2023-01-10T20:33:03.078Z,8.53
2023-01-10T20:38:07.348Z,8.62
2023-01-10T20:43:09.658Z,8.44
2023-01-10T20:48:11.988Z,8.44
2023-01-10T20:53:15.664Z,8.47
2023-01-10T20:58:18.059Z,8.43
2023-01-10T21:03:20.349Z,8.41
2023-01-10T21:08:23.304Z,8.88
2023-01-10T21:13:26.554Z,8.37
2023-01-10T21:18:35.678Z,8.32
2023-01-10T21:23:38.145Z,8.36
2023-01-10T21:28:46.495Z,8.37
2023-01-10T21:33:49.691Z,8.72
2023-01-10T21:38:53.091Z,8.59
2023-01-10T21:43:55.337Z,8.53
2023-01-10T21:48:57.697Z,8.52
2023-01-10T21:54:00.109Z,8.31
2023-01-10T21:59:02.416Z,8.47
2023-01-10T22:04:04.876Z,8.73
2023-01-10T22:09:07.455Z,9.04
2023-01-10T22:14:12.911Z,8.62
2023-01-10T22:19:15.336Z,8.76
2023-01-10T22:24:17.802Z,8.61
2023-01-10T22:29:20.777Z,8.66
2023-01-10T22:34:23.666Z,8.92
2023-01-10T22:39:26.251Z,8.77
2023-01-10T22:44:28.936Z,8.92
2023-01-10T22:49:31.242Z,9.05
2023-01-10T22:54:33.960Z,9.19
2023-01-10T22:59:37.236Z,9.41
2023-01-10T23:04:39.504Z,9.22
2023-01-10T23:09:41.858Z,9.35
2023-01-10T23:14:47.286Z,9.43
2023-01-10T23:19:49.644Z,9.34
2023-01-10T23:24:53.167Z,9.68
2023-01-10T23:29:55.547Z,9.77
2023-01-10T23:34:57.866Z,9.78
2023-01-10T23:40:00.292Z,9.68
2023-01-10T23:45:02.704Z,9.70
2023-01-10T23:50:05.734Z,9.70
2023-01-10T23:55:08.735Z,9.60
